Malaysia Virtual Airlines Airport Information Service

Malé International Airport

ICAO: VRMM Country: Maldives
Latitude: 4.19183 Longitude: 73.5291
Latest Arrival : AK74 (WMKK-VRMM) Latest Departure : MC176 (VRMM-WMKK)


WX CaptureLIVE
Data provided by noaa.gov | Fetched at 17:10:53

METAR : VRMM 261600Z 30008KT 9999 FEW018 SCT022 BKN260 29/25 Q1011 NOSIG

TAF : VRMM 261100Z 2612/2718 27010KT 9999 SCT017TCU BKN110 TEMPO 2612/2618 3000 TSRA SCT017CB


Runway Data for VRMM
Data provided by openaviationdata.com

Runway ID Mag Var Hdg Length Elevation Surface ILS Freq ILS Id ILS Slope
18 -3 182° 10547 ft 0 ft Bituminous -- -- --
36 -3 10547 ft 0 ft Bituminous 108.7 IML 3

Malé International Airport, Maldives
Use only for reference purposes



Not for navigational purposes.